sensor_id;sensor_type;location;lat;lon;timestamp;temperature;humidity
63966;DHT22;50151;52.030;5.350;2023-07-09T05:36:36;22.30;99.90
63966;DHT22;50151;52.030;5.350;2023-07-09T05:39:02;22.30;99.90
63966;DHT22;50151;52.030;5.350;2023-07-09T05:41:29;22.50;99.90
63966;DHT22;50151;52.030;5.350;2023-07-09T05:43:56;22.50;99.90
63966;DHT22;50151;52.030;5.350;2023-07-09T05:46:23;22.60;99.90
63966;DHT22;50151;52.030;5.350;2023-07-09T05:48:50;22.60;99.90
63966;DHT22;50151;52.030;5.350;2023-07-09T05:51:17;22.70;99.90
63966;DHT22;50151;52.030;5.350;2023-07-09T05:53:44;22.70;99.90
63966;DHT22;50151;52.030;5.350;2023-07-09T05:56:10;22.80;99.90
63966;DHT22;50151;52.030;5.350;2023-07-09T05:58:37;22.90;99.90
63966;DHT22;50151;52.030;5.350;2023-07-09T06:01:05;23.00;99.90
63966;DHT22;50151;52.030;5.350;2023-07-09T06:03:32;23.10;99.90
63966;DHT22;50151;52.030;5.350;2023-07-09T06:06:00;23.20;99.90
63966;DHT22;50151;52.030;5.350;2023-07-09T06:08:27;23.30;99.90
63966;DHT22;50151;52.030;5.350;2023-07-09T06:11:00;23.30;99.90
63966;DHT22;50151;52.030;5.350;2023-07-09T06:13:28;23.40;99.90
63966;DHT22;50151;52.030;5.350;2023-07-09T06:15:58;23.50;99.90
63966;DHT22;50151;52.030;5.350;2023-07-09T06:18:26;23.60;99.90
63966;DHT22;50151;52.030;5.350;2023-07-09T06:20:58;23.70;99.90
63966;DHT22;50151;52.030;5.350;2023-07-09T06:23:25;23.80;99.90
63966;DHT22;50151;52.030;5.350;2023-07-09T06:25:52;23.90;99.90
63966;DHT22;50151;52.030;5.350;2023-07-09T06:28:25;23.90;99.90
63966;DHT22;50151;52.030;5.350;2023-07-09T06:30:52;24.00;99.90
63966;DHT22;50151;52.030;5.350;2023-07-09T06:33:19;24.10;99.90
63966;DHT22;50151;52.030;5.350;2023-07-09T06:35:51;24.20;99.90
63966;DHT22;50151;52.030;5.350;2023-07-09T06:38:19;24.30;99.90
63966;DHT22;50151;52.030;5.350;2023-07-09T06:40:46;24.30;99.90
63966;DHT22;50151;52.030;5.350;2023-07-09T06:43:13;24.50;99.90
63966;DHT22;50151;52.030;5.350;2023-07-09T06:45:48;24.50;99.90
63966;DHT22;50151;52.030;5.350;2023-07-09T06:48:15;24.60;99.90
63966;DHT22;50151;52.030;5.350;2023-07-09T06:50:42;24.70;99.90
63966;DHT22;50151;52.030;5.350;2023-07-09T06:53:09;24.70;99.90
63966;DHT22;50151;52.030;5.350;2023-07-09T06:55:36;24.80;99.90
63966;DHT22;50151;52.030;5.350;2023-07-09T06:58:02;24.90;99.90
63966;DHT22;50151;52.030;5.350;2023-07-09T07:00:29;25.00;99.90
63966;DHT22;50151;52.030;5.350;2023-07-09T07:02:56;25.10;99.90
63966;DHT22;50151;52.030;5.350;2023-07-09T07:05:23;25.20;99.90
63966;DHT22;50151;52.030;5.350;2023-07-09T07:07:50;25.30;99.90
63966;DHT22;50151;52.030;5.350;2023-07-09T07:10:16;25.30;99.90
63966;DHT22;50151;52.030;5.350;2023-07-09T07:12:45;25.40;99.90
63966;DHT22;50151;52.030;5.350;2023-07-09T07:15:14;25.50;99.90
63966;DHT22;50151;52.030;5.350;2023-07-09T07:17:42;25.60;99.90
63966;DHT22;50151;52.030;5.350;2023-07-09T07:20:11;25.60;99.90
63966;DHT22;50151;52.030;5.350;2023-07-09T07:22:38;25.70;99.90
63966;DHT22;50151;52.030;5.350;2023-07-09T07:25:06;25.80;99.90
63966;DHT22;50151;52.030;5.350;2023-07-09T07:27:33;25.90;99.90
63966;DHT22;50151;52.030;5.350;2023-07-09T07:30:01;25.80;99.90
63966;DHT22;50151;52.030;5.350;2023-07-09T07:32:28;25.90;99.90
63966;DHT22;50151;52.030;5.350;2023-07-09T07:34:55;26.00;99.90
63966;DHT22;50151;52.030;5.350;2023-07-09T07:37:22;26.20;99.90
63966;DHT22;50151;52.030;5.350;2023-07-09T07:39:49;26.30;99.90
63966;DHT22;50151;52.030;5.350;2023-07-09T07:42:16;26.40;99.90
63966;DHT22;50151;52.030;5.350;2023-07-09T07:44:43;26.40;99.90
63966;DHT22;50151;52.030;5.350;2023-07-09T07:47:10;26.60;99.90
63966;DHT22;50151;52.030;5.350;2023-07-09T07:49:39;26.80;99.90
63966;DHT22;50151;52.030;5.350;2023-07-09T07:52:06;26.80;99.90
63966;DHT22;50151;52.030;5.350;2023-07-09T07:54:34;26.90;99.90
63966;DHT22;50151;52.030;5.350;2023-07-09T07:57:01;27.00;99.90
63966;DHT22;50151;52.030;5.350;2023-07-09T07:59:28;27.00;99.90
63966;DHT22;50151;52.030;5.350;2023-07-09T08:01:55;27.20;99.90
63966;DHT22;50151;52.030;5.350;2023-07-09T08:04:23;27.30;99.90
63966;DHT22;50151;52.030;5.350;2023-07-09T08:06:49;27.30;99.90
63966;DHT22;50151;52.030;5.350;2023-07-09T08:09:17;27.40;99.90
63966;DHT22;50151;52.030;5.350;2023-07-09T08:11:44;27.50;99.90
63966;DHT22;50151;52.030;5.350;2023-07-09T08:14:11;27.60;99.90
63966;DHT22;50151;52.030;5.350;2023-07-09T08:16:38;27.80;99.90
63966;DHT22;50151;52.030;5.350;2023-07-09T08:19:05;27.80;99.90
63966;DHT22;50151;52.030;5.350;2023-07-09T08:21:32;27.90;99.90
63966;DHT22;50151;52.030;5.350;2023-07-09T08:23:59;28.00;99.90
63966;DHT22;50151;52.030;5.350;2023-07-09T08:26:27;28.00;99.90
63966;DHT22;50151;52.030;5.350;2023-07-09T08:28:54;28.20;99.90
63966;DHT22;50151;52.030;5.350;2023-07-09T08:31:21;28.30;99.90
63966;DHT22;50151;52.030;5.350;2023-07-09T08:33:48;28.20;99.90
63966;DHT22;50151;52.030;5.350;2023-07-09T08:36:15;28.20;99.90
63966;DHT22;50151;52.030;5.350;2023-07-09T08:38:42;28.20;99.90
63966;DHT22;50151;52.030;5.350;2023-07-09T08:41:35;28.40;99.90
63966;DHT22;50151;52.030;5.350;2023-07-09T08:50:01;28.70;99.90
63966;DHT22;50151;52.030;5.350;2023-07-09T08:52:41;28.80;99.90
63966;DHT22;50151;52.030;5.350;2023-07-09T08:55:14;28.80;99.90
63966;DHT22;50151;52.030;5.350;2023-07-09T08:57:52;28.90;99.90
63966;DHT22;50151;52.030;5.350;2023-07-09T09:00:45;29.00;99.90
63966;DHT22;50151;52.030;5.350;2023-07-09T09:05:57;29.20;99.90
63966;DHT22;50151;52.030;5.350;2023-07-09T09:08:33;29.20;99.90
63966;DHT22;50151;52.030;5.350;2023-07-09T09:13:57;29.50;99.90
63966;DHT22;50151;52.030;5.350;2023-07-09T09:16:31;29.60;99.90
63966;DHT22;50151;52.030;5.350;2023-07-09T09:19:00;29.50;99.90
63966;DHT22;50151;52.030;5.350;2023-07-09T09:21:36;29.70;99.90
63966;DHT22;50151;52.030;5.350;2023-07-09T09:24:15;29.70;99.90
63966;DHT22;50151;52.030;5.350;2023-07-09T09:26:43;29.70;99.90
63966;DHT22;50151;52.030;5.350;2023-07-09T09:29:14;29.90;99.90
63966;DHT22;50151;52.030;5.350;2023-07-09T09:31:45;30.00;99.90
63966;DHT22;50151;52.030;5.350;2023-07-09T09:34:21;29.90;99.90
63966;DHT22;50151;52.030;5.350;2023-07-09T09:36:48;29.90;99.90
63966;DHT22;50151;52.030;5.350;2023-07-09T09:39:17;30.10;99.90
63966;DHT22;50151;52.030;5.350;2023-07-09T09:41:44;30.20;99.90
63966;DHT22;50151;52.030;5.350;2023-07-09T09:44:28;30.40;99.90
63966;DHT22;50151;52.030;5.350;2023-07-09T09:46:58;30.30;99.90
63966;DHT22;50151;52.030;5.350;2023-07-09T09:49:27;30.20;99.90
63966;DHT22;50151;52.030;5.350;2023-07-09T09:51:54;30.40;99.90
63966;DHT22;50151;52.030;5.350;2023-07-09T09:54:27;30.50;99.90
63966;DHT22;50151;52.030;5.350;2023-07-09T09:57:13;30.60;99.90
63966;DHT22;50151;52.030;5.350;2023-07-09T10:00:01;30.80;99.90
63966;DHT22;50151;52.030;5.350;2023-07-09T10:02:29;31.00;99.90
63966;DHT22;50151;52.030;5.350;2023-07-09T10:04:56;30.90;99.90
63966;DHT22;50151;52.030;5.350;2023-07-09T10:07:45;31.10;99.90
63966;DHT22;50151;52.030;5.350;2023-07-09T10:10:17;31.30;99.90
63966;DHT22;50151;52.030;5.350;2023-07-09T10:12:50;31.30;99.90
63966;DHT22;50151;52.030;5.350;2023-07-09T10:26:35;31.80;99.90
63966;DHT22;50151;52.030;5.350;2023-07-09T10:32:21;31.80;99.90
63966;DHT22;50151;52.030;5.350;2023-07-09T10:40:16;31.90;99.90
63966;DHT22;50151;52.030;5.350;2023-07-09T10:42:46;31.90;99.90
63966;DHT22;50151;52.030;5.350;2023-07-09T10:45:28;31.90;99.90
63966;DHT22;50151;52.030;5.350;2023-07-09T10:48:16;31.90;99.90
63966;DHT22;50151;52.030;5.350;2023-07-09T10:50:52;32.30;99.90
63966;DHT22;50151;52.030;5.350;2023-07-09T10:53:50;32.30;99.90
63966;DHT22;50151;52.030;5.350;2023-07-09T10:56:54;32.10;99.90
63966;DHT22;50151;52.030;5.350;2023-07-09T10:59:36;32.10;99.90
63966;DHT22;50151;52.030;5.350;2023-07-09T11:02:25;32.00;99.90
63966;DHT22;50151;52.030;5.350;2023-07-09T11:05:03;32.00;99.90
63966;DHT22;50151;52.030;5.350;2023-07-09T11:07:35;32.00;99.90
63966;DHT22;50151;52.030;5.350;2023-07-09T11:10:07;31.90;99.90
63966;DHT22;50151;52.030;5.350;2023-07-09T11:12:38;32.30;99.90
63966;DHT22;50151;52.030;5.350;2023-07-09T11:15:28;32.60;99.90
63966;DHT22;50151;52.030;5.350;2023-07-09T11:18:12;32.60;99.90
63966;DHT22;50151;52.030;5.350;2023-07-09T11:20:45;32.60;99.90
63966;DHT22;50151;52.030;5.350;2023-07-09T11:23:23;32.80;99.90
63966;DHT22;50151;52.030;5.350;2023-07-09T11:29:06;32.70;99.90
63966;DHT22;50151;52.030;5.350;2023-07-09T11:31:38;32.80;99.90
63966;DHT22;50151;52.030;5.350;2023-07-09T11:34:15;32.70;99.90
63966;DHT22;50151;52.030;5.350;2023-07-09T11:37:10;32.80;99.90
63966;DHT22;50151;52.030;5.350;2023-07-09T11:42:32;32.70;99.90
63966;DHT22;50151;52.030;5.350;2023-07-09T11:47:43;32.90;99.90
63966;DHT22;50151;52.030;5.350;2023-07-09T11:50:35;32.70;99.90
63966;DHT22;50151;52.030;5.350;2023-07-09T11:53:23;32.80;99.90
63966;DHT22;50151;52.030;5.350;2023-07-09T11:55:55;32.80;99.90
63966;DHT22;50151;52.030;5.350;2023-07-09T11:58:22;32.70;99.90
63966;DHT22;50151;52.030;5.350;2023-07-09T12:00:51;32.70;99.90
63966;DHT22;50151;52.030;5.350;2023-07-09T12:03:31;32.50;99.90
63966;DHT22;50151;52.030;5.350;2023-07-09T12:06:16;32.60;99.90
63966;DHT22;50151;52.030;5.350;2023-07-09T12:08:45;32.40;99.90
63966;DHT22;50151;52.030;5.350;2023-07-09T12:11:28;32.40;99.90
63966;DHT22;50151;52.030;5.350;2023-07-09T12:14:13;32.30;99.90
63966;DHT22;50151;52.030;5.350;2023-07-09T12:16:44;32.30;99.90
63966;DHT22;50151;52.030;5.350;2023-07-09T12:19:17;32.00;99.90
63966;DHT22;50151;52.030;5.350;2023-07-09T12:21:48;31.90;99.90
63966;DHT22;50151;52.030;5.350;2023-07-09T12:24:40;32.00;99.90
63966;DHT22;50151;52.030;5.350;2023-07-09T12:27:26;32.20;99.90
63966;DHT22;50151;52.030;5.350;2023-07-09T12:29:55;32.30;99.90
63966;DHT22;50151;52.030;5.350;2023-07-09T12:32:23;32.50;99.90
63966;DHT22;50151;52.030;5.350;2023-07-09T12:34:55;32.50;99.90
63966;DHT22;50151;52.030;5.350;2023-07-09T12:37:24;32.60;99.90
63966;DHT22;50151;52.030;5.350;2023-07-09T12:39:53;32.50;99.90
63966;DHT22;50151;52.030;5.350;2023-07-09T12:42:28;32.20;99.90
63966;DHT22;50151;52.030;5.350;2023-07-09T12:44:56;32.00;99.90
63966;DHT22;50151;52.030;5.350;2023-07-09T12:47:24;31.40;99.90
63966;DHT22;50151;52.030;5.350;2023-07-09T12:50:08;31.30;99.90
63966;DHT22;50151;52.030;5.350;2023-07-09T12:52:50;31.10;99.90
63966;DHT22;50151;52.030;5.350;2023-07-09T12:55:22;31.30;99.90
63966;DHT22;50151;52.030;5.350;2023-07-09T12:57:55;31.30;99.90
63966;DHT22;50151;52.030;5.350;2023-07-09T13:00:22;31.40;99.90
63966;DHT22;50151;52.030;5.350;2023-07-09T13:02:57;31.40;99.90
63966;DHT22;50151;52.030;5.350;2023-07-09T13:05:25;31.00;99.90
63966;DHT22;50151;52.030;5.350;2023-07-09T13:08:01;30.80;99.90
63966;DHT22;50151;52.030;5.350;2023-07-09T13:10:34;30.50;99.90
63966;DHT22;50151;52.030;5.350;2023-07-09T13:13:05;30.60;99.90
63966;DHT22;50151;52.030;5.350;2023-07-09T13:15:39;30.40;99.90
63966;DHT22;50151;52.030;5.350;2023-07-09T13:18:10;29.90;99.90
63966;DHT22;50151;52.030;5.350;2023-07-09T13:20:41;29.90;99.90
63966;DHT22;50151;52.030;5.350;2023-07-09T13:23:22;30.10;99.90
63966;DHT22;50151;52.030;5.350;2023-07-09T13:25:50;30.10;99.90
63966;DHT22;50151;52.030;5.350;2023-07-09T13:28:26;29.90;99.90
63966;DHT22;50151;52.030;5.350;2023-07-09T13:30:57;30.00;99.90
63966;DHT22;50151;52.030;5.350;2023-07-09T13:33:26;30.40;99.90
63966;DHT22;50151;52.030;5.350;2023-07-09T13:35:54;30.10;99.90
63966;DHT22;50151;52.030;5.350;2023-07-09T13:38:22;30.10;99.90
63966;DHT22;50151;52.030;5.350;2023-07-09T13:40:54;29.60;99.90
63966;DHT22;50151;52.030;5.350;2023-07-09T13:43:33;29.60;99.90
63966;DHT22;50151;52.030;5.350;2023-07-09T13:46:02;29.40;99.90
63966;DHT22;50151;52.030;5.350;2023-07-09T13:48:35;29.40;99.90
63966;DHT22;50151;52.030;5.350;2023-07-09T13:51:17;29.00;99.90
63966;DHT22;50151;52.030;5.350;2023-07-09T13:53:45;29.00;99.90
63966;DHT22;50151;52.030;5.350;2023-07-09T13:56:13;28.60;99.90
63966;DHT22;50151;52.030;5.350;2023-07-09T13:58:39;28.50;99.90
63966;DHT22;50151;52.030;5.350;2023-07-09T14:01:13;28.30;99.90
63966;DHT22;50151;52.030;5.350;2023-07-09T14:03:41;28.50;99.90
63966;DHT22;50151;52.030;5.350;2023-07-09T14:06:12;28.20;99.90
63966;DHT22;50151;52.030;5.350;2023-07-09T14:08:39;28.00;99.90
63966;DHT22;50151;52.030;5.350;2023-07-09T14:11:14;27.60;99.90
63966;DHT22;50151;52.030;5.350;2023-07-09T14:13:41;27.30;99.90
63966;DHT22;50151;52.030;5.350;2023-07-09T14:16:12;27.60;99.90
63966;DHT22;50151;52.030;5.350;2023-07-09T14:18:41;27.20;99.90
63966;DHT22;50151;52.030;5.350;2023-07-09T14:21:13;27.20;99.90
63966;DHT22;50151;52.030;5.350;2023-07-09T14:23:40;27.00;99.90
63966;DHT22;50151;52.030;5.350;2023-07-09T14:26:09;26.80;99.90
63966;DHT22;50151;52.030;5.350;2023-07-09T14:28:36;26.60;99.90
63966;DHT22;50151;52.030;5.350;2023-07-09T14:31:19;26.50;99.90
63966;DHT22;50151;52.030;5.350;2023-07-09T14:33:46;26.10;99.90
63966;DHT22;50151;52.030;5.350;2023-07-09T14:36:13;26.20;99.90
63966;DHT22;50151;52.030;5.350;2023-07-09T14:38:40;26.20;99.90
63966;DHT22;50151;52.030;5.350;2023-07-09T14:41:20;25.80;99.90
63966;DHT22;50151;52.030;5.350;2023-07-09T14:43:48;24.90;99.90
63966;DHT22;50151;52.030;5.350;2023-07-09T14:46:15;24.40;99.90
63966;DHT22;50151;52.030;5.350;2023-07-09T14:48:42;23.70;99.90
63966;DHT22;50151;52.030;5.350;2023-07-09T14:51:14;23.10;99.90
63966;DHT22;50151;52.030;5.350;2023-07-09T14:53:42;23.70;99.90
63966;DHT22;50151;52.030;5.350;2023-07-09T14:56:13;24.00;99.90
63966;DHT22;50151;52.030;5.350;2023-07-09T14:58:40;24.10;99.90
63966;DHT22;50151;52.030;5.350;2023-07-09T15:01:14;23.90;99.90
63966;DHT22;50151;52.030;5.350;2023-07-09T15:03:41;24.40;99.90
63966;DHT22;50151;52.030;5.350;2023-07-09T15:06:08;24.30;99.90
63966;DHT22;50151;52.030;5.350;2023-07-09T15:08:35;24.70;99.90
63966;DHT22;50151;52.030;5.350;2023-07-09T15:11:03;24.80;99.90
63966;DHT22;50151;52.030;5.350;2023-07-09T15:13:35;24.60;99.90
63966;DHT22;50151;52.030;5.350;2023-07-09T15:16:04;24.50;99.90
63966;DHT22;50151;52.030;5.350;2023-07-09T15:18:31;24.00;99.90
63966;DHT22;50151;52.030;5.350;2023-07-09T15:21:02;24.30;99.90
63966;DHT22;50151;52.030;5.350;2023-07-09T15:23:30;24.30;99.90
63966;DHT22;50151;52.030;5.350;2023-07-09T15:25:57;24.40;99.90
63966;DHT22;50151;52.030;5.350;2023-07-09T15:28:24;24.40;99.90
63966;DHT22;50151;52.030;5.350;2023-07-09T15:30:51;24.60;99.90
63966;DHT22;50151;52.030;5.350;2023-07-09T15:33:19;24.50;99.90
63966;DHT22;50151;52.030;5.350;2023-07-09T15:35:48;24.40;99.90
63966;DHT22;50151;52.030;5.350;2023-07-09T15:38:28;24.20;99.90
63966;DHT22;50151;52.030;5.350;2023-07-09T15:40:56;24.10;99.90
63966;DHT22;50151;52.030;5.350;2023-07-09T15:43:23;24.00;99.90
63966;DHT22;50151;52.030;5.350;2023-07-09T15:45:52;23.90;99.90
63966;DHT22;50151;52.030;5.350;2023-07-09T15:48:27;23.70;99.90
63966;DHT22;50151;52.030;5.350;2023-07-09T15:50:56;23.80;99.90
63966;DHT22;50151;52.030;5.350;2023-07-09T15:53:25;23.60;99.90
63966;DHT22;50151;52.030;5.350;2023-07-09T15:55:56;23.70;99.90
63966;DHT22;50151;52.030;5.350;2023-07-09T15:58:38;23.60;99.90
63966;DHT22;50151;52.030;5.350;2023-07-09T16:01:07;23.90;99.90
63966;DHT22;50151;52.030;5.350;2023-07-09T16:03:35;23.90;99.90
63966;DHT22;50151;52.030;5.350;2023-07-09T16:06:02;23.80;99.90
63966;DHT22;50151;52.030;5.350;2023-07-09T16:08:28;23.70;99.90
63966;DHT22;50151;52.030;5.350;2023-07-09T16:10:55;23.80;99.90
63966;DHT22;50151;52.030;5.350;2023-07-09T16:13:24;23.90;99.90
63966;DHT22;50151;52.030;5.350;2023-07-09T16:15:52;24.00;99.90
63966;DHT22;50151;52.030;5.350;2023-07-09T16:18:19;24.00;99.90
63966;DHT22;50151;52.030;5.350;2023-07-09T16:20:46;24.10;99.90
63966;DHT22;50151;52.030;5.350;2023-07-09T16:23:17;24.00;99.90
63966;DHT22;50151;52.030;5.350;2023-07-09T16:25:45;24.10;99.90
63966;DHT22;50151;52.030;5.350;2023-07-09T16:28:14;24.20;99.90
63966;DHT22;50151;52.030;5.350;2023-07-09T16:30:41;24.20;99.90
63966;DHT22;50151;52.030;5.350;2023-07-09T16:33:08;24.20;99.90
63966;DHT22;50151;52.030;5.350;2023-07-09T16:35:36;24.20;99.90
63966;DHT22;50151;52.030;5.350;2023-07-09T16:38:02;24.30;99.90
63966;DHT22;50151;52.030;5.350;2023-07-09T16:40:31;24.40;99.90
63966;DHT22;50151;52.030;5.350;2023-07-09T16:42:59;24.30;99.90
63966;DHT22;50151;52.030;5.350;2023-07-09T16:45:28;24.40;99.90
63966;DHT22;50151;52.030;5.350;2023-07-09T16:47:55;24.30;99.90
63966;DHT22;50151;52.030;5.350;2023-07-09T16:50:24;24.30;99.90
63966;DHT22;50151;52.030;5.350;2023-07-09T16:52:53;24.40;99.90
63966;DHT22;50151;52.030;5.350;2023-07-09T16:55:24;24.50;99.90
63966;DHT22;50151;52.030;5.350;2023-07-09T16:57:55;24.30;99.90
63966;DHT22;50151;52.030;5.350;2023-07-09T17:00:31;24.30;99.90
63966;DHT22;50151;52.030;5.350;2023-07-09T17:03:03;24.40;99.90
63966;DHT22;50151;52.030;5.350;2023-07-09T17:05:31;24.20;99.90
63966;DHT22;50151;52.030;5.350;2023-07-09T17:07:58;24.20;99.90
63966;DHT22;50151;52.030;5.350;2023-07-09T17:10:25;24.20;99.90
63966;DHT22;50151;52.030;5.350;2023-07-09T17:12:58;24.30;99.90
63966;DHT22;50151;52.030;5.350;2023-07-09T17:15:33;24.20;99.90
63966;DHT22;50151;52.030;5.350;2023-07-09T17:18:00;24.00;99.90
63966;DHT22;50151;52.030;5.350;2023-07-09T17:20:29;23.90;99.90
63966;DHT22;50151;52.030;5.350;2023-07-09T17:22:58;24.20;99.90
63966;DHT22;50151;52.030;5.350;2023-07-09T17:25:31;24.20;99.90
63966;DHT22;50151;52.030;5.350;2023-07-09T17:28:00;24.10;99.90
63966;DHT22;50151;52.030;5.350;2023-07-09T17:30:28;24.00;99.90
63966;DHT22;50151;52.030;5.350;2023-07-09T17:32:56;23.80;99.90
63966;DHT22;50151;52.030;5.350;2023-07-09T17:35:23;23.70;99.90
63966;DHT22;50151;52.030;5.350;2023-07-09T17:37:53;23.50;99.90
63966;DHT22;50151;52.030;5.350;2023-07-09T17:40:28;23.40;99.90
63966;DHT22;50151;52.030;5.350;2023-07-09T17:42:58;23.40;99.90
63966;DHT22;50151;52.030;5.350;2023-07-09T17:45:28;23.50;99.90
63966;DHT22;50151;52.030;5.350;2023-07-09T17:47:55;23.30;99.90
63966;DHT22;50151;52.030;5.350;2023-07-09T17:50:24;23.50;99.90
63966;DHT22;50151;52.030;5.350;2023-07-09T17:52:53;23.30;99.90
63966;DHT22;50151;52.030;5.350;2023-07-09T17:55:22;23.40;99.90
63966;DHT22;50151;52.030;5.350;2023-07-09T17:57:52;23.60;99.90
63966;DHT22;50151;52.030;5.350;2023-07-09T18:00:25;23.80;99.90
63966;DHT22;50151;52.030;5.350;2023-07-09T18:02:59;23.90;99.90
63966;DHT22;50151;52.030;5.350;2023-07-09T18:05:29;24.00;99.90
63966;DHT22;50151;52.030;5.350;2023-07-09T18:07:57;23.70;99.90
63966;DHT22;50151;52.030;5.350;2023-07-09T18:10:25;23.90;99.90
63966;DHT22;50151;52.030;5.350;2023-07-09T18:12:55;23.30;99.90
63966;DHT22;50151;52.030;5.350;2023-07-09T18:15:25;23.10;99.90
63966;DHT22;50151;52.030;5.350;2023-07-09T18:17:53;23.30;99.90
63966;DHT22;50151;52.030;5.350;2023-07-09T18:20:23;23.10;99.90
63966;DHT22;50151;52.030;5.350;2023-07-09T18:22:51;23.30;99.90
63966;DHT22;50151;52.030;5.350;2023-07-09T18:25:19;23.20;99.90
63966;DHT22;50151;52.030;5.350;2023-07-09T18:27:59;23.00;99.90
63966;DHT22;50151;52.030;5.350;2023-07-09T18:30:34;23.10;99.90
63966;DHT22;50151;52.030;5.350;2023-07-09T18:33:04;23.20;99.90
63966;DHT22;50151;52.030;5.350;2023-07-09T18:35:35;23.30;99.90
63966;DHT22;50151;52.030;5.350;2023-07-09T18:38:07;23.20;99.90
63966;DHT22;50151;52.030;5.350;2023-07-09T18:40:40;23.20;99.90
63966;DHT22;50151;52.030;5.350;2023-07-09T18:43:17;23.10;99.90
63966;DHT22;50151;52.030;5.350;2023-07-09T18:45:58;23.10;99.90
63966;DHT22;50151;52.030;5.350;2023-07-09T18:48:26;23.20;99.90
63966;DHT22;50151;52.030;5.350;2023-07-09T18:50:56;23.00;99.90
63966;DHT22;50151;52.030;5.350;2023-07-09T18:53:24;23.00;99.90
63966;DHT22;50151;52.030;5.350;2023-07-09T18:55:53;23.10;99.90
63966;DHT22;50151;52.030;5.350;2023-07-09T18:58:23;23.10;99.90
63966;DHT22;50151;52.030;5.350;2023-07-09T19:00:50;23.10;99.90
63966;DHT22;50151;52.030;5.350;2023-07-09T19:03:21;22.90;99.90
63966;DHT22;50151;52.030;5.350;2023-07-09T19:05:48;22.90;99.90
63966;DHT22;50151;52.030;5.350;2023-07-09T19:08:17;22.90;99.90
63966;DHT22;50151;52.030;5.350;2023-07-09T19:10:44;22.80;99.90
63966;DHT22;50151;52.030;5.350;2023-07-09T19:13:11;22.90;99.90
63966;DHT22;50151;52.030;5.350;2023-07-09T19:15:38;22.80;99.90
63966;DHT22;50151;52.030;5.350;2023-07-09T19:18:08;22.70;99.90
63966;DHT22;50151;52.030;5.350;2023-07-09T19:20:37;22.60;99.90
63966;DHT22;50151;52.030;5.350;2023-07-09T19:23:05;22.50;99.90
63966;DHT22;50151;52.030;5.350;2023-07-09T19:25:35;22.40;99.90
63966;DHT22;50151;52.030;5.350;2023-07-09T19:28:02;22.40;99.90
63966;DHT22;50151;52.030;5.350;2023-07-09T19:30:28;22.40;99.90
63966;DHT22;50151;52.030;5.350;2023-07-09T19:32:58;22.30;99.90
63966;DHT22;50151;52.030;5.350;2023-07-09T19:35:27;22.30;99.90
63966;DHT22;50151;52.030;5.350;2023-07-09T19:37:55;22.40;99.90
63966;DHT22;50151;52.030;5.350;2023-07-09T19:40:25;22.40;99.90
63966;DHT22;50151;52.030;5.350;2023-07-09T19:42:54;22.30;99.90
63966;DHT22;50151;52.030;5.350;2023-07-09T19:45:27;22.30;99.90
63966;DHT22;50151;52.030;5.350;2023-07-09T19:47:55;22.40;99.90
63966;DHT22;50151;52.030;5.350;2023-07-09T19:50:28;22.30;99.90
63966;DHT22;50151;52.030;5.350;2023-07-09T19:52:58;22.20;99.90
63966;DHT22;50151;52.030;5.350;2023-07-09T19:55:28;22.30;99.90
63966;DHT22;50151;52.030;5.350;2023-07-09T19:58:01;22.30;99.90
63966;DHT22;50151;52.030;5.350;2023-07-09T20:00:29;22.20;99.90
63966;DHT22;50151;52.030;5.350;2023-07-09T20:02:56;22.20;99.90
63966;DHT22;50151;52.030;5.350;2023-07-09T20:05:25;22.20;99.90
63966;DHT22;50151;52.030;5.350;2023-07-09T20:07:54;22.20;99.90
63966;DHT22;50151;52.030;5.350;2023-07-09T20:10:21;22.10;99.90
63966;DHT22;50151;52.030;5.350;2023-07-09T20:12:50;22.10;99.90
63966;DHT22;50151;52.030;5.350;2023-07-09T20:15:23;22.00;99.90
63966;DHT22;50151;52.030;5.350;2023-07-09T20:17:57;22.10;99.90
63966;DHT22;50151;52.030;5.350;2023-07-09T20:20:25;22.10;99.90
63966;DHT22;50151;52.030;5.350;2023-07-09T20:22:53;22.10;99.90
63966;DHT22;50151;52.030;5.350;2023-07-09T20:25:22;22.10;99.90
63966;DHT22;50151;52.030;5.350;2023-07-09T20:27:50;21.90;99.90
63966;DHT22;50151;52.030;5.350;2023-07-09T20:30:19;21.90;99.90
63966;DHT22;50151;52.030;5.350;2023-07-09T20:32:47;22.10;99.90
63966;DHT22;50151;52.030;5.350;2023-07-09T20:35:21;22.00;99.90
63966;DHT22;50151;52.030;5.350;2023-07-09T20:37:49;22.00;99.90
63966;DHT22;50151;52.030;5.350;2023-07-09T20:40:19;22.00;99.90
63966;DHT22;50151;52.030;5.350;2023-07-09T20:42:47;21.80;99.90
63966;DHT22;50151;52.030;5.350;2023-07-09T20:45:18;21.90;99.90
63966;DHT22;50151;52.030;5.350;2023-07-09T20:47:47;21.70;99.90
63966;DHT22;50151;52.030;5.350;2023-07-09T20:50:18;21.80;99.90
63966;DHT22;50151;52.030;5.350;2023-07-09T20:52:46;21.80;99.90
63966;DHT22;50151;52.030;5.350;2023-07-09T20:55:18;21.90;99.90
63966;DHT22;50151;52.030;5.350;2023-07-09T20:57:46;21.90;99.90
63966;DHT22;50151;52.030;5.350;2023-07-09T21:00:19;21.90;99.90
63966;DHT22;50151;52.030;5.350;2023-07-09T21:02:48;21.90;99.90
63966;DHT22;50151;52.030;5.350;2023-07-09T21:05:17;21.90;99.90
63966;DHT22;50151;52.030;5.350;2023-07-09T21:07:48;21.70;99.90
63966;DHT22;50151;52.030;5.350;2023-07-09T21:10:19;21.60;99.90
63966;DHT22;50151;52.030;5.350;2023-07-09T21:12:47;21.60;99.90
63966;DHT22;50151;52.030;5.350;2023-07-09T21:15:14;21.60;99.90
63966;DHT22;50151;52.030;5.350;2023-07-09T21:17:41;21.50;99.90
63966;DHT22;50151;52.030;5.350;2023-07-09T21:20:14;21.40;99.90
63966;DHT22;50151;52.030;5.350;2023-07-09T21:22:42;21.40;99.90
63966;DHT22;50151;52.030;5.350;2023-07-09T21:25:19;21.40;99.90
63966;DHT22;50151;52.030;5.350;2023-07-09T21:27:46;21.40;99.90
63966;DHT22;50151;52.030;5.350;2023-07-09T21:30:14;21.50;99.90
63966;DHT22;50151;52.030;5.350;2023-07-09T21:32:41;21.30;99.90
63966;DHT22;50151;52.030;5.350;2023-07-09T21:35:21;21.20;99.90
63966;DHT22;50151;52.030;5.350;2023-07-09T21:37:49;21.20;99.90
63966;DHT22;50151;52.030;5.350;2023-07-09T21:42:50;21.30;99.90
63966;DHT22;50151;52.030;5.350;2023-07-09T21:45:18;21.40;99.90
63966;DHT22;50151;52.030;5.350;2023-07-09T21:47:47;21.30;99.90
63966;DHT22;50151;52.030;5.350;2023-07-09T21:50:18;21.40;99.90
63966;DHT22;50151;52.030;5.350;2023-07-09T21:52:45;21.30;99.90
